sensor_id;sensor_type;location;lat;lon;timestamp;pressure;altitude;pressure_sealevel;temperature;humidity
60307;BME280;46155;52.364;6.580;2023-01-05T04:01:59;101298.47;;;9.64;100.00
60307;BME280;46155;52.364;6.580;2023-01-05T04:04:24;101300.03;;;9.62;100.00
60307;BME280;46155;52.364;6.580;2023-01-05T04:06:49;101296.53;;;9.62;100.00
60307;BME280;46155;52.364;6.580;2023-01-05T04:09:15;101293.91;;;9.62;100.00
60307;BME280;46155;52.364;6.580;2023-01-05T04:11:40;101296.75;;;9.65;100.00
60307;BME280;46155;52.364;6.580;2023-01-05T04:14:05;101301.09;;;9.64;100.00
60307;BME280;46155;52.364;6.580;2023-01-05T04:16:30;101297.31;;;9.61;100.00
60307;BME280;46155;52.364;6.580;2023-01-05T04:18:56;101293.69;;;9.59;100.00
60307;BME280;46155;52.364;6.580;2023-01-05T04:21:21;101308.94;;;9.64;100.00
60307;BME280;46155;52.364;6.580;2023-01-05T04:23:46;101307.44;;;9.68;100.00
60307;BME280;46155;52.364;6.580;2023-01-05T04:26:12;101310.66;;;9.64;100.00
60307;BME280;46155;52.364;6.580;2023-01-05T04:28:37;101316.59;;;9.61;100.00
60307;BME280;46155;52.364;6.580;2023-01-05T04:31:02;101321.00;;;9.62;100.00
60307;BME280;46155;52.364;6.580;2023-01-05T04:33:28;101323.41;;;9.59;100.00
60307;BME280;46155;52.364;6.580;2023-01-05T04:35:53;101325.03;;;9.57;100.00
60307;BME280;46155;52.364;6.580;2023-01-05T04:38:18;101313.28;;;9.52;100.00
60307;BME280;46155;52.364;6.580;2023-01-05T04:40:50;101325.25;;;9.60;100.00
60307;BME280;46155;52.364;6.580;2023-01-05T04:43:17;101328.78;;;9.61;100.00
60307;BME280;46155;52.364;6.580;2023-01-05T04:45:45;101324.47;;;9.61;100.00
60307;BME280;46155;52.364;6.580;2023-01-05T04:48:11;101326.16;;;9.61;100.00
60307;BME280;46155;52.364;6.580;2023-01-05T04:50:36;101324.34;;;9.60;100.00
60307;BME280;46155;52.364;6.580;2023-01-05T04:53:01;101326.72;;;9.57;100.00
60307;BME280;46155;52.364;6.580;2023-01-05T04:55:27;101328.34;;;9.55;100.00
60307;BME280;46155;52.364;6.580;2023-01-05T04:57:52;101334.47;;;9.55;100.00
60307;BME280;46155;52.364;6.580;2023-01-05T05:00:17;101329.34;;;9.57;100.00
60307;BME280;46155;52.364;6.580;2023-01-05T05:02:43;101327.44;;;9.54;100.00
60307;BME280;46155;52.364;6.580;2023-01-05T05:05:08;101332.69;;;9.54;100.00
60307;BME280;46155;52.364;6.580;2023-01-05T05:07:34;101340.28;;;9.63;100.00
60307;BME280;46155;52.364;6.580;2023-01-05T05:09:59;101341.78;;;9.71;100.00
60307;BME280;46155;52.364;6.580;2023-01-05T05:12:24;101339.63;;;9.65;100.00
60307;BME280;46155;52.364;6.580;2023-01-05T05:14:50;101351.53;;;9.74;100.00
60307;BME280;46155;52.364;6.580;2023-01-05T05:17:15;101357.63;;;9.73;100.00
60307;BME280;46155;52.364;6.580;2023-01-05T05:19:41;101347.56;;;9.79;100.00
60307;BME280;46155;52.364;6.580;2023-01-05T05:22:06;101361.47;;;9.78;100.00
60307;BME280;46155;52.364;6.580;2023-01-05T05:24:32;101373.22;;;9.71;100.00
60307;BME280;46155;52.364;6.580;2023-01-05T05:26:57;101375.03;;;9.72;100.00
60307;BME280;46155;52.364;6.580;2023-01-05T05:29:23;101371.28;;;9.69;100.00
60307;BME280;46155;52.364;6.580;2023-01-05T05:31:49;101382.34;;;9.64;100.00
60307;BME280;46155;52.364;6.580;2023-01-05T05:34:15;101379.84;;;9.66;100.00
60307;BME280;46155;52.364;6.580;2023-01-05T05:36:41;101385.31;;;9.57;100.00
60307;BME280;46155;52.364;6.580;2023-01-05T05:39:06;101383.50;;;9.56;100.00
60307;BME280;46155;52.364;6.580;2023-01-05T05:41:32;101386.00;;;9.55;100.00
60307;BME280;46155;52.364;6.580;2023-01-05T05:43:57;101399.00;;;9.53;100.00
60307;BME280;46155;52.364;6.580;2023-01-05T05:46:27;101400.34;;;9.48;100.00
60307;BME280;46155;52.364;6.580;2023-01-05T05:48:56;101402.41;;;9.52;100.00
60307;BME280;46155;52.364;6.580;2023-01-05T05:51:23;101411.75;;;9.48;100.00
60307;BME280;46155;52.364;6.580;2023-01-05T05:53:49;101419.25;;;9.44;100.00
60307;BME280;46155;52.364;6.580;2023-01-05T05:56:14;101407.53;;;9.39;100.00
60307;BME280;46155;52.364;6.580;2023-01-05T05:58:40;101420.63;;;9.39;100.00
60307;BME280;46155;52.364;6.580;2023-01-05T06:01:05;101416.31;;;9.39;100.00
60307;BME280;46155;52.364;6.580;2023-01-05T06:03:31;101420.63;;;9.39;100.00
60307;BME280;46155;52.364;6.580;2023-01-05T06:05:56;101425.06;;;9.40;100.00
60307;BME280;46155;52.364;6.580;2023-01-05T06:08:21;101425.78;;;9.37;100.00
60307;BME280;46155;52.364;6.580;2023-01-05T06:10:48;101427.69;;;9.40;100.00
60307;BME280;46155;52.364;6.580;2023-01-05T06:13:14;101429.28;;;9.38;100.00
60307;BME280;46155;52.364;6.580;2023-01-05T06:15:41;101431.91;;;9.38;100.00
60307;BME280;46155;52.364;6.580;2023-01-05T06:18:06;101423.94;;;9.36;100.00
60307;BME280;46155;52.364;6.580;2023-01-05T06:20:31;101437.94;;;9.37;100.00
60307;BME280;46155;52.364;6.580;2023-01-05T06:22:57;101436.38;;;9.39;100.00
60307;BME280;46155;52.364;6.580;2023-01-05T06:25:22;101434.31;;;9.35;100.00
60307;BME280;46155;52.364;6.580;2023-01-05T06:27:47;101441.84;;;9.42;100.00
60307;BME280;46155;52.364;6.580;2023-01-05T06:30:13;101447.41;;;9.35;100.00
60307;BME280;46155;52.364;6.580;2023-01-05T06:32:38;101457.31;;;9.39;100.00
60307;BME280;46155;52.364;6.580;2023-01-05T06:35:04;101456.28;;;9.37;100.00
60307;BME280;46155;52.364;6.580;2023-01-05T06:37:29;101464.16;;;9.37;100.00
60307;BME280;46155;52.364;6.580;2023-01-05T06:39:54;101465.41;;;9.42;100.00
60307;BME280;46155;52.364;6.580;2023-01-05T06:42:20;101467.47;;;9.46;100.00
60307;BME280;46155;52.364;6.580;2023-01-05T06:44:46;101462.56;;;9.39;100.00
60307;BME280;46155;52.364;6.580;2023-01-05T06:47:11;101472.59;;;9.44;100.00
60307;BME280;46155;52.364;6.580;2023-01-05T06:49:36;101470.88;;;9.45;100.00
60307;BME280;46155;52.364;6.580;2023-01-05T06:52:01;101469.31;;;9.47;100.00
60307;BME280;46155;52.364;6.580;2023-01-05T06:54:27;101464.75;;;9.44;100.00
60307;BME280;46155;52.364;6.580;2023-01-05T06:56:52;101473.72;;;9.48;100.00
60307;BME280;46155;52.364;6.580;2023-01-05T06:59:17;101470.31;;;9.49;100.00
60307;BME280;46155;52.364;6.580;2023-01-05T07:01:43;101468.25;;;9.45;100.00
60307;BME280;46155;52.364;6.580;2023-01-05T07:04:08;101478.31;;;9.51;100.00
60307;BME280;46155;52.364;6.580;2023-01-05T07:06:34;101478.19;;;9.49;100.00
60307;BME280;46155;52.364;6.580;2023-01-05T07:09:00;101481.16;;;9.54;100.00
60307;BME280;46155;52.364;6.580;2023-01-05T07:11:26;101484.44;;;9.51;100.00
60307;BME280;46155;52.364;6.580;2023-01-05T07:13:51;101487.66;;;9.47;100.00
60307;BME280;46155;52.364;6.580;2023-01-05T07:16:17;101491.28;;;9.49;100.00
60307;BME280;46155;52.364;6.580;2023-01-05T07:18:43;101491.28;;;9.49;100.00
60307;BME280;46155;52.364;6.580;2023-01-05T07:21:08;101487.88;;;9.50;100.00
60307;BME280;46155;52.364;6.580;2023-01-05T07:23:34;101498.38;;;9.74;100.00
60307;BME280;46155;52.364;6.580;2023-01-05T07:26:02;101503.53;;;9.84;100.00
60307;BME280;46155;52.364;6.580;2023-01-05T07:28:28;101500.09;;;10.32;100.00
60307;BME280;46155;52.364;6.580;2023-01-05T07:30:53;101510.38;;;10.41;100.00
60307;BME280;46155;52.364;6.580;2023-01-05T07:33:18;101491.09;;;10.17;100.00
60307;BME280;46155;52.364;6.580;2023-01-05T07:35:44;101509.31;;;10.27;100.00
60307;BME280;46155;52.364;6.580;2023-01-05T07:38:09;101511.38;;;10.31;100.00
60307;BME280;46155;52.364;6.580;2023-01-05T07:40:35;101511.75;;;10.36;100.00
60307;BME280;46155;52.364;6.580;2023-01-05T07:43:00;101516.88;;;10.23;100.00
60307;BME280;46155;52.364;6.580;2023-01-05T07:45:25;101518.25;;;10.06;100.00
60307;BME280;46155;52.364;6.580;2023-01-05T07:47:51;101518.03;;;10.03;100.00
60307;BME280;46155;52.364;6.580;2023-01-05T07:50:16;101528.03;;;9.96;100.00
60307;BME280;46155;52.364;6.580;2023-01-05T07:52:41;101521.56;;;9.91;100.00
60307;BME280;46155;52.364;6.580;2023-01-05T07:55:07;101523.69;;;9.85;100.00
60307;BME280;46155;52.364;6.580;2023-01-05T07:57:32;101530.56;;;9.83;100.00
60307;BME280;46155;52.364;6.580;2023-01-05T07:59:57;101528.25;;;9.76;100.00
60307;BME280;46155;52.364;6.580;2023-01-05T08:02:23;101533.97;;;9.70;100.00
60307;BME280;46155;52.364;6.580;2023-01-05T08:04:48;101533.28;;;9.73;100.00
60307;BME280;46155;52.364;6.580;2023-01-05T08:07:13;101540.94;;;9.70;100.00
60307;BME280;46155;52.364;6.580;2023-01-05T08:09:40;101540.94;;;9.70;100.00
60307;BME280;46155;52.364;6.580;2023-01-05T08:12:24;101546.41;;;9.96;100.00
60307;BME280;46155;52.364;6.580;2023-01-05T08:14:49;101554.75;;;10.26;100.00
60307;BME280;46155;52.364;6.580;2023-01-05T08:17:14;101565.47;;;10.17;100.00
60307;BME280;46155;52.364;6.580;2023-01-05T08:19:40;101559.31;;;10.17;100.00
60307;BME280;46155;52.364;6.580;2023-01-05T08:22:05;101554.53;;;10.11;100.00
60307;BME280;46155;52.364;6.580;2023-01-05T08:24:30;101561.34;;;9.97;100.00
60307;BME280;46155;52.364;6.580;2023-01-05T08:26:56;101566.38;;;9.94;100.00
60307;BME280;46155;52.364;6.580;2023-01-05T08:29:21;101561.00;;;9.81;100.00
60307;BME280;46155;52.364;6.580;2023-01-05T08:31:46;101570.91;;;9.85;100.00
60307;BME280;46155;52.364;6.580;2023-01-05T08:34:12;101585.63;;;9.83;100.00
60307;BME280;46155;52.364;6.580;2023-01-05T08:36:37;101580.16;;;9.80;100.00
60307;BME280;46155;52.364;6.580;2023-01-05T08:39:04;101579.22;;;9.79;100.00
60307;BME280;46155;52.364;6.580;2023-01-05T08:41:32;101594.59;;;9.75;100.00
60307;BME280;46155;52.364;6.580;2023-01-05T08:44:01;101598.50;;;9.80;100.00
60307;BME280;46155;52.364;6.580;2023-01-05T08:46:30;101588.13;;;9.70;100.00
60307;BME280;46155;52.364;6.580;2023-01-05T08:48:58;101602.59;;;9.76;100.00
60307;BME280;46155;52.364;6.580;2023-01-05T08:51:24;101605.31;;;9.78;100.00
60307;BME280;46155;52.364;6.580;2023-01-05T08:53:49;101603.63;;;9.78;100.00
60307;BME280;46155;52.364;6.580;2023-01-05T08:56:15;101600.09;;;9.78;100.00
60307;BME280;46155;52.364;6.580;2023-01-05T08:58:41;101603.41;;;9.75;100.00
60307;BME280;46155;52.364;6.580;2023-01-05T09:01:11;101605.31;;;9.78;100.00
60307;BME280;46155;52.364;6.580;2023-01-05T09:03:37;101610.56;;;9.78;100.00
60307;BME280;46155;52.364;6.580;2023-01-05T09:06:04;101620.28;;;9.79;100.00
60307;BME280;46155;52.364;6.580;2023-01-05T09:08:31;101615.69;;;9.76;100.00
60307;BME280;46155;52.364;6.580;2023-01-05T09:11:13;101623.00;;;9.80;100.00
60307;BME280;46155;52.364;6.580;2023-01-05T09:13:40;101628.16;;;9.79;100.00
60307;BME280;46155;52.364;6.580;2023-01-05T09:16:11;101632.50;;;9.90;100.00
60307;BME280;46155;52.364;6.580;2023-01-05T09:18:38;101619.94;;;9.86;100.00
60307;BME280;46155;52.364;6.580;2023-01-05T09:21:04;101635.81;;;9.88;100.00
60307;BME280;46155;52.364;6.580;2023-01-05T09:23:31;101650.31;;;9.94;100.00
60307;BME280;46155;52.364;6.580;2023-01-05T09:25:56;101651.22;;;9.95;100.00
60307;BME280;46155;52.364;6.580;2023-01-05T09:28:21;101649.16;;;9.91;100.00
60307;BME280;46155;52.364;6.580;2023-01-05T09:30:47;101665.47;;;9.87;100.00
60307;BME280;46155;52.364;6.580;2023-01-05T09:33:12;101658.28;;;9.84;100.00
60307;BME280;46155;52.364;6.580;2023-01-05T09:35:37;101665.31;;;9.85;100.00
60307;BME280;46155;52.364;6.580;2023-01-05T09:38:02;101679.47;;;9.87;100.00
60307;BME280;46155;52.364;6.580;2023-01-05T09:40:30;101675.13;;;9.88;100.00
60307;BME280;46155;52.364;6.580;2023-01-05T09:42:59;101674.00;;;9.84;100.00
60307;BME280;46155;52.364;6.580;2023-01-05T09:45:26;101668.97;;;9.75;100.00
60307;BME280;46155;52.364;6.580;2023-01-05T09:47:52;101685.84;;;9.79;100.00
60307;BME280;46155;52.364;6.580;2023-01-05T09:50:21;101672.59;;;9.77;100.00
60307;BME280;46155;52.364;6.580;2023-01-05T09:52:48;101694.16;;;9.85;100.00
60307;BME280;46155;52.364;6.580;2023-01-05T09:55:17;101695.81;;;9.95;100.00
60307;BME280;46155;52.364;6.580;2023-01-05T09:57:52;101693.88;;;9.92;100.00
60307;BME280;46155;52.364;6.580;2023-01-05T10:00:20;101704.38;;;9.92;100.00
60307;BME280;46155;52.364;6.580;2023-01-05T10:02:50;101707.53;;;9.88;100.00
60307;BME280;46155;52.364;6.580;2023-01-05T10:05:16;101706.19;;;9.93;100.00
60307;BME280;46155;52.364;6.580;2023-01-05T10:08:16;101702.53;;;9.91;100.00
60307;BME280;46155;52.364;6.580;2023-01-05T10:11:04;101704.09;;;9.89;100.00
60307;BME280;46155;52.364;6.580;2023-01-05T10:16:18;101705.75;;;9.99;100.00
60307;BME280;46155;52.364;6.580;2023-01-05T10:18:44;101698.69;;;9.98;100.00
60307;BME280;46155;52.364;6.580;2023-01-05T10:21:38;101700.06;;;10.05;100.00
60307;BME280;46155;52.364;6.580;2023-01-05T10:24:23;101698.53;;;9.96;100.00
60307;BME280;46155;52.364;6.580;2023-01-05T10:26:57;101708.25;;;9.97;100.00
60307;BME280;46155;52.364;6.580;2023-01-05T10:29:46;101710.63;;;9.94;100.00
60307;BME280;46155;52.364;6.580;2023-01-05T10:32:59;101715.53;;;9.90;100.00
60307;BME280;46155;52.364;6.580;2023-01-05T10:35:49;101729.31;;;9.87;100.00
60307;BME280;46155;52.364;6.580;2023-01-05T10:43:51;101725.34;;;9.92;100.00
60307;BME280;46155;52.364;6.580;2023-01-05T10:46:21;101731.06;;;9.98;100.00
60307;BME280;46155;52.364;6.580;2023-01-05T10:48:47;101727.41;;;9.96;100.00
60307;BME280;46155;52.364;6.580;2023-01-05T10:51:12;101724.91;;;9.98;100.00
60307;BME280;46155;52.364;6.580;2023-01-05T10:53:39;101733.69;;;9.98;100.00
60307;BME280;46155;52.364;6.580;2023-01-05T10:56:12;101736.56;;;10.02;100.00
60307;BME280;46155;52.364;6.580;2023-01-05T10:58:43;101728.44;;;9.98;100.00
60307;BME280;46155;52.364;6.580;2023-01-05T11:01:25;101726.50;;;9.96;100.00
60307;BME280;46155;52.364;6.580;2023-01-05T11:04:12;101721.47;;;9.99;100.00
60307;BME280;46155;52.364;6.580;2023-01-05T11:06:40;101733.38;;;10.06;100.00
60307;BME280;46155;52.364;6.580;2023-01-05T11:09:23;101728.13;;;10.06;100.00
60307;BME280;46155;52.364;6.580;2023-01-05T11:12:02;101724.63;;;10.17;100.00
60307;BME280;46155;52.364;6.580;2023-01-05T11:14:32;101725.91;;;10.22;100.00
60307;BME280;46155;52.364;6.580;2023-01-05T11:17:05;101720.88;;;10.25;100.00
60307;BME280;46155;52.364;6.580;2023-01-05T11:19:35;101735.84;;;10.26;100.00
60307;BME280;46155;52.364;6.580;2023-01-05T11:22:01;101725.19;;;10.25;100.00
60307;BME280;46155;52.364;6.580;2023-01-05T11:24:34;101726.13;;;10.25;100.00
60307;BME280;46155;52.364;6.580;2023-01-05T11:27:01;101733.44;;;10.29;100.00
60307;BME280;46155;52.364;6.580;2023-01-05T11:29:28;101731.63;;;10.28;100.00
60307;BME280;46155;52.364;6.580;2023-01-05T11:31:57;101719.28;;;10.27;100.00
60307;BME280;46155;52.364;6.580;2023-01-05T11:37:05;101731.16;;;10.22;100.00
60307;BME280;46155;52.364;6.580;2023-01-05T11:39:49;101729.78;;;10.27;100.00
60307;BME280;46155;52.364;6.580;2023-01-05T11:42:35;101734.78;;;10.24;100.00
60307;BME280;46155;52.364;6.580;2023-01-05T11:45:17;101724.75;;;10.30;100.00
60307;BME280;46155;52.364;6.580;2023-01-05T11:47:57;101735.50;;;10.33;100.00
60307;BME280;46155;52.364;6.580;2023-01-05T11:50:32;101743.66;;;10.37;100.00
60307;BME280;46155;52.364;6.580;2023-01-05T11:53:02;101724.06;;;10.33;100.00
60307;BME280;46155;52.364;6.580;2023-01-05T11:55:38;101736.13;;;10.41;100.00
60307;BME280;46155;52.364;6.580;2023-01-05T12:03:30;101743.75;;;10.38;100.00
60307;BME280;46155;52.364;6.580;2023-01-05T12:06:11;101740.09;;;10.36;100.00
60307;BME280;46155;52.364;6.580;2023-01-05T12:08:50;101739.41;;;10.39;100.00
60307;BME280;46155;52.364;6.580;2023-01-05T12:11:20;101738.13;;;10.33;100.00
60307;BME280;46155;52.364;6.580;2023-01-05T12:14:12;101743.53;;;10.35;100.00
60307;BME280;46155;52.364;6.580;2023-01-05T12:16:48;101739.41;;;10.39;100.00
60307;BME280;46155;52.364;6.580;2023-01-05T12:19:28;101743.75;;;10.38;100.00
60307;BME280;46155;52.364;6.580;2023-01-05T12:41:44;101749.19;;;10.29;100.00
60307;BME280;46155;52.364;6.580;2023-01-05T12:49:27;101741.44;;;10.31;100.00
60307;BME280;46155;52.364;6.580;2023-01-05T12:52:02;101742.09;;;10.28;100.00
60307;BME280;46155;52.364;6.580;2023-01-05T12:54:43;101745.75;;;10.30;100.00
60307;BME280;46155;52.364;6.580;2023-01-05T12:57:16;101747.84;;;10.34;100.00
60307;BME280;46155;52.364;6.580;2023-01-05T12:59:51;101746.28;;;10.37;100.00
60307;BME280;46155;52.364;6.580;2023-01-05T13:05:01;101751.25;;;10.33;100.00
60307;BME280;46155;52.364;6.580;2023-01-05T13:07:37;101734.34;;;10.30;100.00
60307;BME280;46155;52.364;6.580;2023-01-05T13:10:14;101740.50;;;10.30;100.00
60307;BME280;46155;52.364;6.580;2023-01-05T13:12:41;101747.47;;;10.30;100.00
60307;BME280;46155;52.364;6.580;2023-01-05T13:17:37;101753.50;;;10.29;100.00
60307;BME280;46155;52.364;6.580;2023-01-05T13:23:06;101754.69;;;10.32;100.00
60307;BME280;46155;52.364;6.580;2023-01-05T13:25:53;101756.50;;;10.33;100.00
60307;BME280;46155;52.364;6.580;2023-01-05T13:28:21;101750.47;;;10.34;100.00
60307;BME280;46155;52.364;6.580;2023-01-05T13:34:02;101760.81;;;10.33;100.00
60307;BME280;46155;52.364;6.580;2023-01-05T13:36:52;101766.75;;;10.30;100.00
60307;BME280;46155;52.364;6.580;2023-01-05T13:53:44;101775.50;;;10.41;100.00
60307;BME280;46155;52.364;6.580;2023-01-05T13:56:21;101772.75;;;10.40;100.00
60307;BME280;46155;52.364;6.580;2023-01-05T13:58:50;101770.13;;;10.40;100.00
60307;BME280;46155;52.364;6.580;2023-01-05T14:01:39;101761.69;;;10.44;100.00
60307;BME280;46155;52.364;6.580;2023-01-05T14:04:25;101766.16;;;10.45;100.00
60307;BME280;46155;52.364;6.580;2023-01-05T14:06:54;101761.47;;;10.41;100.00
60307;BME280;46155;52.364;6.580;2023-01-05T14:09:27;101764.53;;;10.35;100.00
60307;BME280;46155;52.364;6.580;2023-01-05T14:20:39;101768.34;;;10.28;100.00
60307;BME280;46155;52.364;6.580;2023-01-05T14:25:54;101775.44;;;10.29;100.00
60307;BME280;46155;52.364;6.580;2023-01-05T14:33:49;101778.84;;;10.28;100.00
60307;BME280;46155;52.364;6.580;2023-01-05T14:36:28;101778.75;;;10.27;100.00
60307;BME280;46155;52.364;6.580;2023-01-05T14:38:55;101781.47;;;10.28;100.00
60307;BME280;46155;52.364;6.580;2023-01-05T14:41:22;101778.84;;;10.28;100.00
60307;BME280;46155;52.364;6.580;2023-01-05T14:44:20;101782.16;;;10.26;100.00
60307;BME280;46155;52.364;6.580;2023-01-05T14:46:54;101781.25;;;10.25;100.00
60307;BME280;46155;52.364;6.580;2023-01-05T14:51:54;101777.44;;;10.22;100.00
60307;BME280;46155;52.364;6.580;2023-01-05T14:59:55;101781.88;;;10.11;100.00
60307;BME280;46155;52.364;6.580;2023-01-05T15:02:26;101777.19;;;10.07;100.00
60307;BME280;46155;52.364;6.580;2023-01-05T15:04:58;101774.44;;;10.05;100.00
60307;BME280;46155;52.364;6.580;2023-01-05T15:15:58;101776.44;;;9.97;100.00
60307;BME280;46155;52.364;6.580;2023-01-05T15:27:11;101784.31;;;9.97;100.00
60307;BME280;46155;52.364;6.580;2023-01-05T15:32:34;101782.38;;;9.95;100.00
60307;BME280;46155;52.364;6.580;2023-01-05T15:35:20;101771.50;;;9.90;100.00
60307;BME280;46155;52.364;6.580;2023-01-05T15:37:48;101775.97;;;9.91;100.00
60307;BME280;46155;52.364;6.580;2023-01-05T15:42:49;101792.69;;;9.81;100.00
60307;BME280;46155;52.364;6.580;2023-01-05T15:45:33;101780.25;;;9.79;100.00
60307;BME280;46155;52.364;6.580;2023-01-05T15:48:07;101785.13;;;9.74;100.00
60307;BME280;46155;52.364;6.580;2023-01-05T15:53:04;101783.47;;;9.64;100.00
60307;BME280;46155;52.364;6.580;2023-01-05T15:55:30;101780.63;;;9.61;100.00
60307;BME280;46155;52.364;6.580;2023-01-05T15:58:01;101773.94;;;9.55;100.00
60307;BME280;46155;52.364;6.580;2023-01-05T16:00:33;101781.47;;;9.50;100.00
60307;BME280;46155;52.364;6.580;2023-01-05T16:02:59;101789.88;;;9.46;100.00
60307;BME280;46155;52.364;6.580;2023-01-05T16:05:27;101785.41;;;9.45;100.00
60307;BME280;46155;52.364;6.580;2023-01-05T16:10:33;101786.19;;;9.44;100.00
60307;BME280;46155;52.364;6.580;2023-01-05T16:15:34;101773.19;;;9.45;100.00
60307;BME280;46155;52.364;6.580;2023-01-05T16:18:00;101772.28;;;9.45;100.00
60307;BME280;46155;52.364;6.580;2023-01-05T16:20:27;101784.38;;;9.43;100.00
60307;BME280;46155;52.364;6.580;2023-01-05T16:22:57;101773.09;;;9.44;100.00
60307;BME280;46155;52.364;6.580;2023-01-05T16:25:26;101777.97;;;9.39;100.00
60307;BME280;46155;52.364;6.580;2023-01-05T16:27:57;101782.28;;;9.39;100.00
60307;BME280;46155;52.364;6.580;2023-01-05T16:41:10;101767.94;;;9.56;100.00
60307;BME280;46155;52.364;6.580;2023-01-05T16:43:42;101769.38;;;9.52;100.00
60307;BME280;46155;52.364;6.580;2023-01-05T16:51:11;101757.13;;;9.41;100.00
60307;BME280;46155;52.364;6.580;2023-01-05T16:53:47;101759.50;;;9.38;100.00
60307;BME280;46155;52.364;6.580;2023-01-05T16:56:21;101757.34;;;9.44;100.00
60307;BME280;46155;52.364;6.580;2023-01-05T16:58:47;101758.16;;;9.43;100.00
60307;BME280;46155;52.364;6.580;2023-01-05T17:03:41;101756.31;;;9.42;100.00
60307;BME280;46155;52.364;6.580;2023-01-05T17:06:20;101752.00;;;9.42;100.00
60307;BME280;46155;52.364;6.580;2023-01-05T17:08:46;101764.72;;;9.38;100.00
60307;BME280;46155;52.364;6.580;2023-01-05T17:11:12;101745.59;;;9.39;100.00
60307;BME280;46155;52.364;6.580;2023-01-05T17:13:44;101752.66;;;9.40;100.00
60307;BME280;46155;52.364;6.580;2023-01-05T17:16:12;101757.66;;;9.37;100.00
60307;BME280;46155;52.364;6.580;2023-01-05T17:18:38;101755.97;;;9.37;100.00
60307;BME280;46155;52.364;6.580;2023-01-05T17:21:04;101764.06;;;9.40;100.00
60307;BME280;46155;52.364;6.580;2023-01-05T17:23:38;101766.81;;;9.42;100.00
60307;BME280;46155;52.364;6.580;2023-01-05T17:26:10;101763.13;;;9.40;100.00
60307;BME280;46155;52.364;6.580;2023-01-05T17:28:37;101766.81;;;9.42;100.00
60307;BME280;46155;52.364;6.580;2023-01-05T17:31:02;101760.78;;;9.43;100.00
60307;BME280;46155;52.364;6.580;2023-01-05T17:33:29;101759.97;;;9.44;100.00
60307;BME280;46155;52.364;6.580;2023-01-05T17:35:54;101758.16;;;9.43;100.00
60307;BME280;46155;52.364;6.580;2023-01-05T17:38:20;101753.22;;;9.36;100.00
60307;BME280;46155;52.364;6.580;2023-01-05T17:40:45;101759.50;;;9.38;100.00
60307;BME280;46155;52.364;6.580;2023-01-05T17:43:10;101754.00;;;9.35;100.00
60307;BME280;46155;52.364;6.580;2023-01-05T17:45:39;101746.94;;;9.34;100.00
60307;BME280;46155;52.364;6.580;2023-01-05T17:48:05;101747.84;;;9.34;100.00
60307;BME280;46155;52.364;6.580;2023-01-05T17:50:31;101748.53;;;9.32;100.00
60307;BME280;46155;52.364;6.580;2023-01-05T17:52:58;101747.72;;;9.33;100.00
60307;BME280;46155;52.364;6.580;2023-01-05T17:55:24;101746.69;;;9.30;100.00
60307;BME280;46155;52.364;6.580;2023-01-05T17:57:49;101744.84;;;9.29;100.00
60307;BME280;46155;52.364;6.580;2023-01-05T18:00:17;101736.88;;;9.28;100.00
60307;BME280;46155;52.364;6.580;2023-01-05T18:02:43;101731.63;;;9.28;100.00
60307;BME280;46155;52.364;6.580;2023-01-05T18:05:10;101726.50;;;9.29;100.00
60307;BME280;46155;52.364;6.580;2023-01-05T18:07:36;101724.66;;;9.28;100.00
60307;BME280;46155;52.364;6.580;2023-01-05T18:10:03;101717.75;;;9.29;100.00
60307;BME280;46155;52.364;6.580;2023-01-05T18:12:29;101714.06;;;9.27;100.00
60307;BME280;46155;52.364;6.580;2023-01-05T18:14:54;101706.09;;;9.25;100.00
60307;BME280;46155;52.364;6.580;2023-01-05T18:17:20;101708.59;;;9.24;100.00
60307;BME280;46155;52.364;6.580;2023-01-05T18:19:45;101705.59;;;9.19;100.00
60307;BME280;46155;52.364;6.580;2023-01-05T18:22:11;101703.34;;;9.24;100.00
60307;BME280;46155;52.364;6.580;2023-01-05T18:24:38;101704.00;;;9.21;100.00
60307;BME280;46155;52.364;6.580;2023-01-05T18:27:04;101698.66;;;9.20;100.00
60307;BME280;46155;52.364;6.580;2023-01-05T18:29:32;101704.56;;;9.17;100.00
60307;BME280;46155;52.364;6.580;2023-01-05T18:31:57;101698.66;;;9.20;100.00
60307;BME280;46155;52.364;6.580;2023-01-05T18:34:23;101699.34;;;9.17;100.00
60307;BME280;46155;52.364;6.580;2023-01-05T18:36:48;101696.72;;;9.17;100.00
60307;BME280;46155;52.364;6.580;2023-01-05T18:39:13;101687.91;;;9.17;100.00
60307;BME280;46155;52.364;6.580;2023-01-05T18:41:38;101690.38;;;9.25;100.00
60307;BME280;46155;52.364;6.580;2023-01-05T18:44:04;101690.13;;;9.22;100.00
60307;BME280;46155;52.364;6.580;2023-01-05T18:46:29;101687.38;;;9.21;100.00
60307;BME280;46155;52.364;6.580;2023-01-05T18:48:55;101681.25;;;9.20;100.00
60307;BME280;46155;52.364;6.580;2023-01-05T18:51:20;101678.50;;;9.19;100.00
60307;BME280;46155;52.364;6.580;2023-01-05T18:53:45;101678.50;;;9.19;100.00
60307;BME280;46155;52.364;6.580;2023-01-05T18:56:12;101677.56;;;9.18;100.00
60307;BME280;46155;52.364;6.580;2023-01-05T18:58:37;101676.00;;;9.20;100.00
60307;BME280;46155;52.364;6.580;2023-01-05T19:01:11;101672.31;;;9.18;100.00
60307;BME280;46155;52.364;6.580;2023-01-05T19:03:37;101671.53;;;9.19;100.00
60307;BME280;46155;52.364;6.580;2023-01-05T19:06:13;101674.81;;;9.17;100.00
60307;BME280;46155;52.364;6.580;2023-01-05T19:08:39;101669.69;;;9.18;100.00
60307;BME280;46155;52.364;6.580;2023-01-05T19:13:37;101660.28;;;9.20;100.00
60307;BME280;46155;52.364;6.580;2023-01-05T19:16:04;101671.00;;;9.23;100.00
60307;BME280;46155;52.364;6.580;2023-01-05T19:18:29;101668.25;;;9.22;100.00
60307;BME280;46155;52.364;6.580;2023-01-05T19:20:56;101668.38;;;9.23;100.00